Time,TemperatureF,DewpointF,PressureIn,WindDirection,WindDirectionDegrees,WindSpeedMPH,WindSpeedGustMPH,Humidity,HourlyPrecipIn,Conditions,Clouds,dailyrainin,SoftwareType,DateUTC
2013-08-06 00:03:00,62.4,61.8,29.94,West,270,3.7,-999.0,98,-99.99,,,0.00,Acu-Link.com,2013-08-06 04:03:00,
2013-08-06 00:18:00,62.8,62.2,29.94,WNW,292,0.0,-999.0,98,-99.99,,,0.00,Acu-Link.com,2013-08-06 04:18:00,
2013-08-06 00:34:00,62.6,62.0,29.94,South,180,0.0,-999.0,98,-99.99,,,0.00,Acu-Link.com,2013-08-06 04:34:00,
2013-08-06 00:49:00,62.6,62.0,29.93,South,180,0.0,-999.0,98,-99.99,,,0.00,Acu-Link.com,2013-08-06 04:49:00,
2013-08-06 01:04:00,62.8,62.2,29.94,WSW,247,0.0,-999.0,98,-99.99,,,0.00,Acu-Link.com,2013-08-06 05:04:00,
2013-08-06 01:19:00,62.8,62.2,29.94,West,270,0.0,-999.0,98,-99.99,,,0.00,Acu-Link.com,2013-08-06 05:19:00,
2013-08-06 01:35:00,63.0,62.4,29.93,SE,135,1.1,-999.0,98,-99.99,,,0.00,Acu-Link.com,2013-08-06 05:35:00,
2013-08-06 01:50:00,63.0,62.4,29.92,West,270,2.2,-999.0,98,-99.99,,,0.00,Acu-Link.com,2013-08-06 05:50:00,
2013-08-06 02:05:00,63.0,62.4,29.92,SW,225,0.0,-999.0,98,-99.99,,,0.00,Acu-Link.com,2013-08-06 06:05:00,
2013-08-06 02:21:00,63.1,62.5,29.92,South,180,0.0,-999.0,98,-99.99,,,0.00,Acu-Link.com,2013-08-06 06:21:00,
2013-08-06 02:36:00,63.3,62.7,29.92,SSE,157,0.0,-999.0,98,-99.99,,,0.00,Acu-Link.com,2013-08-06 06:36:00,
2013-08-06 02:51:00,63.3,62.7,29.91,SSE,157,1.7,-999.0,98,-99.99,,,0.00,Acu-Link.com,2013-08-06 06:51:00,
2013-08-06 03:07:00,63.3,62.7,29.91,WSW,247,2.2,-999.0,98,-99.99,,,0.00,Acu-Link.com,2013-08-06 07:07:00,
2013-08-06 03:22:00,63.3,62.7,29.90,South,180,1.1,-999.0,98,-99.99,,,0.00,Acu-Link.com,2013-08-06 07:22:00,
2013-08-06 03:37:00,63.3,62.7,29.90,West,270,2.2,-999.0,98,-99.99,,,0.00,Acu-Link.com,2013-08-06 07:37:00,
2013-08-06 03:52:00,63.3,63.0,29.90,SW,225,1.7,-999.0,99,-99.99,,,0.00,Acu-Link.com,2013-08-06 07:52:00,
2013-08-06 04:08:00,62.8,62.5,29.89,SW,225,0.0,-999.0,99,-99.99,,,0.00,Acu-Link.com,2013-08-06 08:08:00,
2013-08-06 04:23:00,62.4,62.1,29.90,WSW,247,0.0,-999.0,99,-99.99,,,0.00,Acu-Link.com,2013-08-06 08:23:00,
2013-08-06 04:38:00,62.4,62.1,29.91,SSE,157,0.0,-999.0,99,-99.99,,,0.00,Acu-Link.com,2013-08-06 08:38:00,
2013-08-06 04:53:00,62.8,62.5,29.90,South,180,0.0,-999.0,99,-99.99,,,0.00,Acu-Link.com,2013-08-06 08:53:00,
2013-08-06 05:08:00,62.8,62.5,29.91,SW,225,0.0,-999.0,99,-99.99,,,0.00,Acu-Link.com,2013-08-06 09:08:00,
2013-08-06 05:23:00,63.0,62.7,29.91,SW,225,0.0,-999.0,99,-99.99,,,0.00,Acu-Link.com,2013-08-06 09:23:00,
2013-08-06 05:39:00,62.8,62.5,29.91,SW,225,0.0,-999.0,99,-99.99,,,0.00,Acu-Link.com,2013-08-06 09:39:00,
2013-08-06 05:54:00,62.4,62.1,29.91,SW,225,0.0,-999.0,99,-99.99,,,0.00,Acu-Link.com,2013-08-06 09:54:00,
2013-08-06 06:09:00,62.1,61.8,29.91,WSW,247,0.0,-999.0,99,-99.99,,,0.00,Acu-Link.com,2013-08-06 10:09:00,
2013-08-06 06:25:00,61.7,61.4,29.91,WSW,247,0.0,-999.0,99,-99.99,,,0.00,Acu-Link.com,2013-08-06 10:25:00,
2013-08-06 06:40:00,61.9,61.6,29.91,SW,225,0.0,-999.0,99,-99.99,,,0.00,Acu-Link.com,2013-08-06 10:40:00,
2013-08-06 06:55:00,62.4,62.1,29.91,SW,225,0.0,-999.0,99,-99.99,,,0.00,Acu-Link.com,2013-08-06 10:55:00,
2013-08-06 07:10:00,63.3,63.0,29.92,West,270,0.0,-999.0,99,-99.99,,,0.00,Acu-Link.com,2013-08-06 11:10:00,
2013-08-06 07:26:00,64.2,63.9,29.93,SSE,157,0.0,-999.0,99,-99.99,,,0.00,Acu-Link.com,2013-08-06 11:26:00,
2013-08-06 07:41:00,64.0,63.7,29.93,NNW,337,0.0,-999.0,99,-99.99,,,0.00,Acu-Link.com,2013-08-06 11:41:00,
2013-08-06 07:56:00,65.7,65.1,29.93,WSW,247,0.0,-999.0,98,-99.99,,,0.00,Acu-Link.com,2013-08-06 11:56:00,
2013-08-06 08:12:00,67.1,65.9,29.94,SW,225,0.0,-999.0,96,-99.99,,,0.00,Acu-Link.com,2013-08-06 12:12:00,
2013-08-06 08:27:00,70.5,67.7,29.94,SW,225,0.0,-999.0,91,-99.99,,,0.00,Acu-Link.com,2013-08-06 12:27:00,
2013-08-06 08:42:00,72.5,68.4,29.93,SW,225,2.2,-999.0,87,-99.99,,,0.00,Acu-Link.com,2013-08-06 12:42:00,
2013-08-06 08:58:00,74.8,69.3,29.93,SSW,202,3.2,-999.0,83,-99.99,,,0.00,Acu-Link.com,2013-08-06 12:58:00,
2013-08-06 09:13:00,72.9,67.4,29.93,WSW,247,2.7,-999.0,83,-99.99,,,0.00,Acu-Link.com,2013-08-06 13:13:00,
2013-08-06 09:28:00,73.2,67.0,29.93,SW,225,2.2,-999.0,81,-99.99,,,0.00,Acu-Link.com,2013-08-06 13:28:00,
2013-08-06 09:43:00,71.6,67.5,29.93,WSW,247,2.7,-999.0,87,-99.99,,,0.00,Acu-Link.com,2013-08-06 13:43:00,
2013-08-06 09:59:00,72.0,66.9,29.93,SW,225,2.2,-999.0,84,-99.99,,,0.00,Acu-Link.com,2013-08-06 13:59:00,
2013-08-06 10:14:00,72.9,67.4,29.92,SW,225,2.7,-999.0,83,-99.99,,,0.00,Acu-Link.com,2013-08-06 14:14:00,
2013-08-06 10:29:00,73.6,67.8,29.91,WSW,247,1.7,-999.0,82,-99.99,,,0.00,Acu-Link.com,2013-08-06 14:29:00,
2013-08-06 10:44:00,74.3,67.4,29.92,WSW,247,3.2,-999.0,79,-99.99,,,0.00,Acu-Link.com,2013-08-06 14:44:00,
2013-08-06 10:59:00,74.8,68.2,29.93,SW,225,2.2,-999.0,80,-99.99,,,0.00,Acu-Link.com,2013-08-06 14:59:00,
2013-08-06 11:15:00,75.0,67.7,29.92,WSW,247,1.7,-999.0,78,-99.99,,,0.00,Acu-Link.com,2013-08-06 15:15:00,
2013-08-06 11:30:00,74.5,67.5,29.92,WSW,247,1.7,-999.0,79,-99.99,,,0.00,Acu-Link.com,2013-08-06 15:30:00,
2013-08-06 11:45:00,73.8,66.9,29.91,SW,225,1.7,-999.0,79,-99.99,,,0.00,Acu-Link.com,2013-08-06 15:45:00,
2013-08-06 12:01:00,73.0,65.4,29.91,West,270,0.0,-999.0,77,-99.99,,,0.00,Acu-Link.com,2013-08-06 16:01:00,
2013-08-06 12:16:00,73.4,66.5,29.91,West,270,2.2,-999.0,79,-99.99,,,0.00,Acu-Link.com,2013-08-06 16:16:00,
2013-08-06 12:31:00,76.1,66.8,29.92,SSW,202,1.1,-999.0,73,-99.99,,,0.00,Acu-Link.com,2013-08-06 16:31:00,
2013-08-06 12:46:00,73.9,65.8,29.92,SW,225,2.2,-999.0,76,-99.99,,,0.00,Acu-Link.com,2013-08-06 16:46:00,
2013-08-06 13:02:00,73.2,66.6,29.92,WSW,247,0.0,-999.0,80,-99.99,,,0.00,Acu-Link.com,2013-08-06 17:02:00,
2013-08-06 13:17:00,73.4,66.8,29.92,SW,225,2.2,-999.0,80,-99.99,,,0.00,Acu-Link.com,2013-08-06 17:17:00,
2013-08-06 13:32:00,73.0,66.1,29.93,SSW,202,0.0,-999.0,79,-99.99,,,0.00,Acu-Link.com,2013-08-06 17:32:00,
2013-08-06 13:48:00,75.4,68.0,29.92,SSW,202,0.0,-999.0,78,-99.99,,,0.00,Acu-Link.com,2013-08-06 17:48:00,
2013-08-06 14:03:00,75.2,69.0,29.91,South,180,1.7,-999.0,81,-99.99,,,0.00,Acu-Link.com,2013-08-06 18:03:00,
2013-08-06 14:18:00,75.7,68.3,29.90,South,180,0.0,-999.0,78,-99.99,,,0.00,Acu-Link.com,2013-08-06 18:18:00,
2013-08-06 14:34:00,75.7,69.4,29.90,South,180,2.2,-999.0,81,-99.99,,,0.00,Acu-Link.com,2013-08-06 18:34:00,
2013-08-06 14:49:00,73.9,68.4,29.91,SE,135,3.7,-999.0,83,-99.99,,,0.00,Acu-Link.com,2013-08-06 18:49:00,
2013-08-06 15:04:00,73.0,68.2,29.90,WSW,247,0.0,-999.0,85,-99.99,,,0.00,Acu-Link.com,2013-08-06 19:04:00,
2013-08-06 15:19:00,75.6,69.3,29.89,SW,225,0.0,-999.0,81,-99.99,,,0.00,Acu-Link.com,2013-08-06 19:19:00,
2013-08-06 15:35:00,76.6,69.6,29.89,SSW,202,5.3,-999.0,79,-99.99,,,0.00,Acu-Link.com,2013-08-06 19:35:00,
2013-08-06 15:50:00,74.1,68.6,29.90,SW,225,4.7,-999.0,83,-99.99,,,0.00,Acu-Link.com,2013-08-06 19:50:00,
2013-08-06 16:05:00,73.2,68.4,29.90,South,180,4.2,-999.0,85,-99.99,,,0.00,Acu-Link.com,2013-08-06 20:05:00,
2013-08-06 16:20:00,72.9,68.5,29.90,South,180,4.7,-999.0,86,-99.99,,,0.00,Acu-Link.com,2013-08-06 20:20:00,
2013-08-06 16:36:00,74.5,69.3,29.89,SSW,202,6.8,-999.0,84,-99.99,,,0.00,Acu-Link.com,2013-08-06 20:36:00,
2013-08-06 16:51:00,74.1,68.9,29.89,East,90,6.3,-999.0,84,-99.99,,,0.00,Acu-Link.com,2013-08-06 20:51:00,
2013-08-06 17:06:00,73.0,68.9,29.91,SSE,157,5.8,-999.0,87,-99.99,,,0.00,Acu-Link.com,2013-08-06 21:06:00,
2013-08-06 17:21:00,72.9,69.1,29.91,ESE,112,5.3,-999.0,88,-99.99,,,0.00,Acu-Link.com,2013-08-06 21:21:00,
2013-08-06 17:37:00,73.9,69.4,29.90,South,180,9.9,-999.0,86,-99.99,,,0.00,Acu-Link.com,2013-08-06 21:37:00,
2013-08-06 17:52:00,72.0,68.6,29.90,SSE,157,6.3,-999.0,89,-99.99,,,0.00,Acu-Link.com,2013-08-06 21:52:00,
2013-08-06 18:07:00,71.6,68.2,29.90,SSE,157,4.2,-999.0,89,-99.99,,,0.00,Acu-Link.com,2013-08-06 22:07:00,
2013-08-06 18:22:00,71.6,68.2,29.90,SE,135,1.7,-999.0,89,-99.99,,,0.00,Acu-Link.com,2013-08-06 22:22:00,
2013-08-06 18:37:00,71.8,68.4,29.91,South,180,4.2,-999.0,89,-99.99,,,0.00,Acu-Link.com,2013-08-06 22:37:00,
2013-08-06 18:53:00,71.1,68.0,29.92,ESE,112,2.2,-999.0,90,-99.99,,,0.00,Acu-Link.com,2013-08-06 22:53:00,
2013-08-06 19:08:00,71.2,68.1,29.93,SSW,202,2.2,-999.0,90,-99.99,,,0.00,Acu-Link.com,2013-08-06 23:08:00,
2013-08-06 19:23:00,70.2,67.4,29.92,SW,225,2.2,-999.0,91,-99.99,,,0.00,Acu-Link.com,2013-08-06 23:23:00,
2013-08-06 19:38:00,69.8,67.0,29.93,SSW,202,5.3,-999.0,91,-99.99,,,0.00,Acu-Link.com,2013-08-06 23:38:00,
2013-08-06 19:54:00,68.9,66.8,29.93,SSE,157,2.2,-999.0,93,-99.99,,,0.00,Acu-Link.com,2013-08-06 23:54:00,
2013-08-06 20:09:00,68.0,66.5,29.93,SW,225,2.2,-999.0,95,-99.99,,,0.00,Acu-Link.com,2013-08-07 00:09:00,
2013-08-06 20:24:00,67.6,66.4,29.93,SSW,202,2.2,-999.0,96,-99.99,,,0.00,Acu-Link.com,2013-08-07 00:24:00,
2013-08-06 20:40:00,67.5,66.9,29.93,SSW,202,0.0,-999.0,98,-99.99,,,0.00,Acu-Link.com,2013-08-07 00:40:00,
2013-08-06 20:55:00,67.1,66.5,29.94,SW,225,0.0,-999.0,98,-99.99,,,0.00,Acu-Link.com,2013-08-07 00:55:00,
2013-08-06 21:11:00,66.9,66.3,29.94,SW,225,0.0,-999.0,98,-99.99,,,0.00,Acu-Link.com,2013-08-07 01:11:00,
2013-08-06 21:26:00,66.6,66.3,29.94,West,270,0.0,-999.0,99,-99.99,,,0.00,Acu-Link.com,2013-08-07 01:26:00,
2013-08-06 21:41:00,66.2,65.9,29.95,SW,225,0.0,-999.0,99,-99.99,,,0.00,Acu-Link.com,2013-08-07 01:41:00,
2013-08-06 21:56:00,66.0,65.7,29.95,WSW,247,0.0,-999.0,99,-99.99,,,0.00,Acu-Link.com,2013-08-07 01:56:00,
2013-08-06 22:12:00,65.7,65.4,29.95,SW,225,0.0,-999.0,99,-99.99,,,0.00,Acu-Link.com,2013-08-07 02:12:00,
2013-08-06 22:27:00,65.3,65.0,29.96,SSW,202,0.0,-999.0,99,-99.99,,,0.00,Acu-Link.com,2013-08-07 02:27:00,
2013-08-06 22:42:00,65.1,64.8,29.96,SSW,202,0.0,-999.0,99,-99.99,,,0.00,Acu-Link.com,2013-08-07 02:42:00,
2013-08-06 22:57:00,65.1,64.8,29.96,SW,225,0.0,-999.0,99,-99.99,,,0.00,Acu-Link.com,2013-08-07 02:57:00,
2013-08-06 23:13:00,65.1,64.8,29.96,WSW,247,0.0,-999.0,99,-99.99,,,0.00,Acu-Link.com,2013-08-07 03:13:00,
2013-08-06 23:28:00,65.3,65.0,29.96,SSW,202,0.0,-999.0,99,-99.99,,,0.00,Acu-Link.com,2013-08-07 03:28:00,
2013-08-06 23:43:00,65.1,64.8,29.96,SW,225,0.0,-999.0,99,-99.99,,,0.00,Acu-Link.com,2013-08-07 03:43:00,
2013-08-06 23:59:00,64.8,64.5,29.96,SW,225,0.0,-999.0,99,-99.99,,,0.00,Acu-Link.com,2013-08-07 03:59:00,